createdAt,value
2023-04-08T00:03:12.556Z,2.53
2023-04-08T00:06:24.550Z,2.53
2023-04-08T00:09:36.518Z,2.52
2023-04-08T00:12:48.736Z,2.52
2023-04-08T00:16:01.096Z,2.51
2023-04-08T00:19:13.167Z,2.49
2023-04-08T00:22:26.107Z,2.42
2023-04-08T00:25:38.439Z,2.36
2023-04-08T00:28:50.759Z,2.36
2023-04-08T00:32:03.488Z,2.29
2023-04-08T00:35:16.215Z,2.15
2023-04-08T00:38:28.475Z,2.16
2023-04-08T00:41:41.501Z,2.13
2023-04-08T00:44:53.716Z,2.09
2023-04-08T00:48:06.017Z,2.05
2023-04-08T00:51:18.216Z,2.03
2023-04-08T00:54:30.732Z,2.01
2023-04-08T00:57:43.098Z,2.00
2023-04-08T01:00:59.965Z,1.96
2023-04-08T01:04:21.378Z,1.91
2023-04-08T01:07:38.218Z,1.85
2023-04-08T01:10:54.429Z,1.84
2023-04-08T01:14:12.085Z,1.80
2023-04-08T01:17:28.242Z,1.86
2023-04-08T01:20:41.734Z,1.89
2023-04-08T01:24:04.912Z,1.81
2023-04-08T01:27:19.542Z,1.80
2023-04-08T01:30:34.664Z,1.80
2023-04-08T01:33:47.411Z,1.77
2023-04-08T01:37:01.603Z,1.71
2023-04-08T01:40:17.086Z,1.78
2023-04-08T01:43:32.473Z,1.74
2023-04-08T01:46:45.448Z,1.72
2023-04-08T01:49:59.021Z,1.76
2023-04-08T01:53:12.268Z,1.72
2023-04-08T01:56:26.959Z,1.68
2023-04-08T01:59:42.238Z,1.72
2023-04-08T02:02:55.814Z,1.68
2023-04-08T02:06:08.248Z,1.63
2023-04-08T02:09:20.158Z,1.60
2023-04-08T02:12:33.426Z,1.53
2023-04-08T02:15:50.894Z,1.55
2023-04-08T02:19:06.131Z,1.66
2023-04-08T02:22:24.671Z,1.51
2023-04-08T02:25:40.451Z,1.42
2023-04-08T02:28:55.120Z,1.48
2023-04-08T02:32:10.370Z,1.48
2023-04-08T02:35:24.539Z,1.50
2023-04-08T02:38:36.632Z,1.54
2023-04-08T02:41:48.534Z,1.61
2023-04-08T02:45:00.820Z,1.54
2023-04-08T02:48:13.725Z,1.51
2023-04-08T02:51:26.486Z,1.61
2023-04-08T02:54:38.636Z,1.67
2023-04-08T02:57:51.457Z,1.67
2023-04-08T03:01:03.628Z,1.68
2023-04-08T03:04:15.748Z,1.66
2023-04-08T03:07:27.620Z,1.67
2023-04-08T03:10:39.610Z,1.76
2023-04-08T03:13:51.622Z,1.75
2023-04-08T03:17:03.686Z,1.67
2023-04-08T03:20:17.787Z,1.72
2023-04-08T03:23:30.022Z,1.76
2023-04-08T03:26:42.094Z,1.64
2023-04-08T03:29:54.139Z,1.62
2023-04-08T03:33:08.263Z,1.57
2023-04-08T03:36:20.697Z,1.56
2023-04-08T03:39:32.821Z,1.53
2023-04-08T03:42:44.736Z,1.56
2023-04-08T03:45:59.604Z,1.47
2023-04-08T03:49:11.693Z,1.40
2023-04-08T03:52:23.686Z,1.42
2023-04-08T03:55:35.630Z,1.37
2023-04-08T03:58:47.933Z,1.44
2023-04-08T04:02:00.277Z,1.49
2023-04-08T04:05:13.548Z,1.48
2023-04-08T04:08:25.546Z,1.55
2023-04-08T04:11:37.623Z,1.50
2023-04-08T04:14:49.417Z,1.52
2023-04-08T04:18:01.424Z,1.54
2023-04-08T04:21:14.563Z,1.56
2023-04-08T04:24:26.728Z,1.58
2023-04-08T04:27:38.770Z,1.66
2023-04-08T04:30:50.801Z,1.68
2023-04-08T04:34:03.100Z,1.71
2023-04-08T04:37:15.037Z,1.73
2023-04-08T04:40:27.286Z,1.81
2023-04-08T04:43:39.462Z,1.88
2023-04-08T04:46:52.998Z,1.90
2023-04-08T04:50:05.191Z,1.91
2023-04-08T04:53:17.339Z,1.93
2023-04-08T04:56:29.682Z,1.95
2023-04-08T04:59:41.925Z,1.97
2023-04-08T05:02:54.206Z,2.01
2023-04-08T05:06:06.314Z,1.90
2023-04-08T05:09:18.222Z,1.99
2023-04-08T05:12:30.220Z,2.07
2023-04-08T05:15:42.153Z,2.03
2023-04-08T05:18:54.161Z,2.13
2023-04-08T05:22:06.133Z,2.25
2023-04-08T05:25:19.213Z,2.16
2023-04-08T05:28:31.107Z,2.15
2023-04-08T05:31:43.029Z,2.21
2023-04-08T05:34:55.094Z,2.29
2023-04-08T05:38:07.729Z,2.30
2023-04-08T05:41:19.807Z,2.38
2023-04-08T05:44:31.703Z,2.46
2023-04-08T05:47:43.615Z,2.57
2023-04-08T05:50:55.742Z,2.62
2023-04-08T05:54:08.015Z,2.68
2023-04-08T05:57:20.970Z,2.76
2023-04-08T06:00:33.166Z,2.81
2023-04-08T06:03:45.584Z,2.82
2023-04-08T06:06:59.856Z,2.84
2023-04-08T06:10:14.634Z,2.85
2023-04-08T06:13:27.159Z,2.88
2023-04-08T06:16:39.168Z,2.91
2023-04-08T06:19:51.185Z,2.91
2023-04-08T06:23:03.083Z,2.94
2023-04-08T06:26:15.309Z,2.99
2023-04-08T06:29:29.890Z,3.18
2023-04-08T06:32:41.725Z,3.14
2023-04-08T06:35:53.757Z,3.23
2023-04-08T06:39:05.861Z,3.32
2023-04-08T06:42:17.903Z,3.32
2023-04-08T06:45:32.815Z,3.44
2023-04-08T06:48:44.765Z,3.53
2023-04-08T06:51:57.207Z,3.40
2023-04-08T06:55:09.837Z,3.52
2023-04-08T06:58:21.908Z,3.59
2023-04-08T07:01:34.023Z,3.69
2023-04-08T07:04:47.001Z,3.76
2023-04-08T07:07:59.064Z,3.96
2023-04-08T07:11:11.396Z,3.94
2023-04-08T07:14:23.521Z,4.02
2023-04-08T07:17:35.487Z,3.91
2023-04-08T07:20:47.516Z,4.30
2023-04-08T07:23:59.375Z,4.39
2023-04-08T07:27:11.717Z,5.57
2023-04-08T07:30:23.886Z,5.44
2023-04-08T07:33:36.273Z,5.16
2023-04-08T07:36:48.331Z,5.03
2023-04-08T07:40:00.978Z,5.08
2023-04-08T07:43:14.695Z,5.38
2023-04-08T07:46:27.508Z,5.39
2023-04-08T07:49:41.682Z,5.40
2023-04-08T07:52:54.414Z,5.36
2023-04-08T07:56:07.742Z,5.48
2023-04-08T07:59:22.278Z,5.46
2023-04-08T08:02:34.442Z,5.38
2023-04-08T08:05:47.166Z,5.39
2023-04-08T08:09:08.255Z,5.49
2023-04-08T08:12:23.932Z,5.58
2023-04-08T08:15:37.094Z,5.73
2023-04-08T08:18:49.218Z,5.61
2023-04-08T08:22:03.561Z,5.64
2023-04-08T08:25:16.939Z,5.82
2023-04-08T08:28:29.498Z,6.02
2023-04-08T08:31:42.234Z,5.86
2023-04-08T08:34:54.331Z,5.95
2023-04-08T08:38:06.532Z,5.88
2023-04-08T08:41:18.571Z,5.76
2023-04-08T08:44:30.586Z,5.81
2023-04-08T08:47:42.760Z,5.80
2023-04-08T08:50:55.155Z,5.89
2023-04-08T08:54:09.810Z,5.82
2023-04-08T08:57:28.503Z,5.84
2023-04-08T09:00:42.532Z,6.42
2023-04-08T09:03:58.697Z,6.78
2023-04-08T09:07:19.946Z,6.99
2023-04-08T09:10:36.552Z,6.73
2023-04-08T09:13:49.612Z,6.73
2023-04-08T09:17:01.824Z,7.65
2023-04-08T09:20:17.778Z,7.85
2023-04-08T09:23:29.842Z,7.99
2023-04-08T09:26:42.482Z,8.44
2023-04-08T09:29:54.392Z,8.67
2023-04-08T09:33:07.543Z,8.62
2023-04-08T09:36:20.386Z,8.52
2023-04-08T09:39:32.472Z,8.54
2023-04-08T09:42:53.741Z,8.06
2023-04-08T09:46:10.686Z,8.01
2023-04-08T09:49:23.341Z,8.04
2023-04-08T09:52:41.734Z,7.89
2023-04-08T09:55:58.006Z,7.46
2023-04-08T09:59:17.616Z,7.23
2023-04-08T10:02:35.371Z,6.84
2023-04-08T10:05:49.830Z,6.84
2023-04-08T10:09:03.212Z,6.78
2023-04-08T10:12:16.349Z,6.73
2023-04-08T10:15:34.545Z,6.50
2023-04-08T10:18:46.904Z,6.61
2023-04-08T10:21:58.985Z,6.44
2023-04-08T10:25:38.065Z,6.32
2023-04-08T10:28:50.204Z,6.42
2023-04-08T10:32:03.144Z,6.28
2023-04-08T10:35:15.580Z,6.26
2023-04-08T10:38:28.007Z,6.10
2023-04-08T10:41:39.976Z,6.08
2023-04-08T10:44:53.832Z,6.10
2023-04-08T10:48:23.226Z,6.05
2023-04-08T10:51:38.504Z,6.02
2023-04-08T10:54:54.153Z,5.92
2023-04-08T10:58:13.792Z,5.88
2023-04-08T11:01:26.615Z,5.90
2023-04-08T11:04:38.722Z,5.82
2023-04-08T11:07:51.390Z,5.84
2023-04-08T11:11:05.702Z,5.91
2023-04-08T11:14:20.486Z,5.84
2023-04-08T11:17:32.935Z,5.76
2023-04-08T11:20:45.606Z,5.70
2023-04-08T11:23:58.798Z,5.65
2023-04-08T11:27:11.404Z,5.58
2023-04-08T11:30:24.289Z,5.55
2023-04-08T11:33:39.157Z,5.51
2023-04-08T11:36:52.838Z,5.51
2023-04-08T11:40:05.007Z,5.48
2023-04-08T11:43:20.463Z,5.49
2023-04-08T11:46:32.836Z,5.60
2023-04-08T11:49:54.436Z,5.73
2023-04-08T11:53:06.837Z,5.80
2023-04-08T11:56:27.544Z,5.76
2023-04-08T11:59:40.081Z,5.71
2023-04-08T12:02:52.908Z,5.70
2023-04-08T12:06:05.618Z,5.75
2023-04-08T12:09:17.805Z,5.80
2023-04-08T12:12:30.184Z,5.63
2023-04-08T12:15:42.360Z,5.73
2023-04-08T12:18:54.809Z,5.65
2023-04-08T12:22:06.963Z,5.60
2023-04-08T12:25:19.485Z,5.68
2023-04-08T12:28:31.863Z,5.71
2023-04-08T12:31:44.137Z,5.79
2023-04-08T12:34:56.590Z,5.84
2023-04-08T12:38:08.695Z,5.87
2023-04-08T12:41:21.967Z,5.86
2023-04-08T12:44:34.235Z,5.87
2023-04-08T12:47:48.025Z,5.96
2023-04-08T12:51:00.630Z,6.04
2023-04-08T12:54:13.351Z,6.04
2023-04-08T12:57:25.576Z,6.13
2023-04-08T13:00:38.087Z,6.11
2023-04-08T13:03:50.692Z,6.16
2023-04-08T13:07:04.621Z,6.08
2023-04-08T13:10:17.865Z,6.07
2023-04-08T13:13:30.390Z,6.07
2023-04-08T13:16:42.623Z,6.16
2023-04-08T13:19:54.785Z,6.17
2023-04-08T13:23:07.298Z,6.13
2023-04-08T13:26:19.568Z,6.11
2023-04-08T13:29:31.935Z,6.11
2023-04-08T13:32:44.233Z,6.13
2023-04-08T13:35:56.953Z,6.32
2023-04-08T13:39:09.370Z,6.27
2023-04-08T13:42:21.608Z,6.47
2023-04-08T13:45:34.038Z,6.67
2023-04-08T13:48:47.107Z,6.67
2023-04-08T13:51:59.249Z,6.79
2023-04-08T13:55:12.813Z,6.87
2023-04-08T13:58:26.070Z,6.92
2023-04-08T14:01:40.814Z,7.10
2023-04-08T14:04:53.980Z,7.09
2023-04-08T14:08:06.309Z,7.03
2023-04-08T14:11:18.429Z,7.06
2023-04-08T14:14:30.629Z,7.00
2023-04-08T14:17:42.898Z,7.04
2023-04-08T14:20:54.930Z,7.01
2023-04-08T14:24:07.205Z,6.97
2023-04-08T14:27:19.496Z,6.95
2023-04-08T14:30:32.053Z,7.09
2023-04-08T14:33:44.205Z,7.04
2023-04-08T14:36:56.520Z,7.16
2023-04-08T14:40:09.203Z,7.17
2023-04-08T14:43:21.358Z,7.17
2023-04-08T14:46:33.949Z,7.19
2023-04-08T14:49:46.383Z,7.20
2023-04-08T14:52:58.905Z,7.19
2023-04-08T14:56:12.093Z,7.21
2023-04-08T14:59:24.345Z,7.18
2023-04-08T15:02:36.531Z,7.13
2023-04-08T15:05:49.041Z,7.18
2023-04-08T15:09:01.466Z,7.13
2023-04-08T15:12:13.937Z,7.13
2023-04-08T15:15:26.060Z,7.19
2023-04-08T15:18:38.302Z,7.13
2023-04-08T15:21:50.825Z,7.09
2023-04-08T15:25:05.220Z,7.12
2023-04-08T15:28:17.677Z,7.15
2023-04-08T15:31:29.930Z,7.10
2023-04-08T15:37:42.720Z,7.12
2023-04-08T15:40:55.102Z,7.18
2023-04-08T15:44:07.387Z,7.17
2023-04-08T15:47:19.598Z,7.17
2023-04-08T15:50:34.394Z,7.22
2023-04-08T15:53:47.085Z,7.18
2023-04-08T15:56:59.155Z,7.17
2023-04-08T16:00:18.550Z,7.13
2023-04-08T16:03:30.986Z,7.13
2023-04-08T16:06:44.546Z,7.09
2023-04-08T16:09:57.648Z,7.05
2023-04-08T16:13:09.965Z,7.00
2023-04-08T16:16:22.313Z,6.94
2023-04-08T16:19:35.676Z,6.92
2023-04-08T16:22:48.093Z,6.94
2023-04-08T16:26:00.494Z,6.94
2023-04-08T16:29:12.698Z,6.95
2023-04-08T16:32:24.993Z,6.96
2023-04-08T16:35:37.333Z,6.93
2023-04-08T16:38:49.728Z,6.92
2023-04-08T16:42:02.250Z,6.86
2023-04-08T16:45:16.973Z,6.80
2023-04-08T16:48:29.147Z,6.76
2023-04-08T16:51:41.412Z,6.74
2023-04-08T16:54:53.791Z,6.70
2023-04-08T16:58:06.356Z,6.69
2023-04-08T17:01:21.171Z,6.65
2023-04-08T17:04:34.967Z,6.63
2023-04-08T17:07:47.269Z,6.59
2023-04-08T17:10:59.634Z,6.63
2023-04-08T17:14:11.912Z,6.56
2023-04-08T17:17:24.468Z,6.49
2023-04-08T17:20:37.731Z,6.50
2023-04-08T17:23:50.371Z,6.48
2023-04-08T17:27:02.841Z,6.43
2023-04-08T17:30:17.729Z,6.38
2023-04-08T17:33:30.502Z,6.37
2023-04-08T17:36:42.827Z,6.34
2023-04-08T17:39:55.149Z,6.30
2023-04-08T17:43:07.491Z,6.33
2023-04-08T17:46:19.785Z,6.34
2023-04-08T17:49:33.311Z,6.34
2023-04-08T17:52:48.486Z,6.34
2023-04-08T17:56:01.051Z,6.33
2023-04-08T17:59:13.576Z,6.30
2023-04-08T18:02:27.800Z,6.30
2023-04-08T18:05:41.053Z,6.28
2023-04-08T18:08:53.353Z,6.25
2023-04-08T18:12:06.617Z,6.19
2023-04-08T18:15:19.991Z,6.13
2023-04-08T18:18:32.457Z,6.07
2023-04-08T18:21:44.745Z,6.04
2023-04-08T18:24:57.098Z,6.03
2023-04-08T18:28:09.407Z,6.09
2023-04-08T18:31:21.901Z,6.12
2023-04-08T18:34:34.312Z,6.11
2023-04-08T18:37:46.408Z,6.13
2023-04-08T18:40:58.600Z,6.11
2023-04-08T18:44:10.967Z,6.09
2023-04-08T18:47:23.313Z,6.04
2023-04-08T18:50:35.806Z,6.03
2023-04-08T18:53:48.586Z,6.08
2023-04-08T18:57:01.282Z,6.11
2023-04-08T19:00:17.573Z,6.17
2023-04-08T19:03:30.264Z,6.17
2023-04-08T19:06:42.841Z,6.11
2023-04-08T19:09:55.144Z,6.09
2023-04-08T19:13:07.350Z,6.09
2023-04-08T19:16:19.506Z,6.07
2023-04-08T19:19:32.866Z,6.03
2023-04-08T19:22:45.162Z,6.01
2023-04-08T19:25:57.403Z,5.91
2023-04-08T19:29:09.821Z,5.94
2023-04-08T19:32:21.908Z,5.93
2023-04-08T19:35:34.265Z,5.89
2023-04-08T19:38:46.585Z,5.88
2023-04-08T19:41:58.634Z,5.85
2023-04-08T19:45:12.655Z,5.85
2023-04-08T19:48:25.089Z,5.85
2023-04-08T19:51:37.222Z,5.85
2023-04-08T19:54:49.349Z,5.85
2023-04-08T19:58:01.781Z,5.85
2023-04-08T20:01:14.389Z,5.84
2023-04-08T20:04:26.751Z,5.83
2023-04-08T20:07:38.962Z,5.76
2023-04-08T20:10:51.213Z,5.73
2023-04-08T20:14:03.609Z,5.68
2023-04-08T20:17:16.651Z,5.67
2023-04-08T20:20:30.165Z,5.65
2023-04-08T20:23:44.582Z,5.63
2023-04-08T20:26:56.843Z,5.57
2023-04-08T20:30:10.543Z,5.51
2023-04-08T20:33:23.266Z,5.49
2023-04-08T20:36:35.616Z,5.46
2023-04-08T20:39:48.849Z,5.46
2023-04-08T20:43:01.263Z,5.42
2023-04-08T20:46:13.678Z,5.34
2023-04-08T20:49:26.070Z,5.32
2023-04-08T20:52:38.844Z,5.25
2023-04-08T20:55:51.262Z,5.21
2023-04-08T20:59:03.329Z,5.20
2023-04-08T21:02:16.231Z,5.17
2023-04-08T21:05:28.720Z,5.19
2023-04-08T21:08:41.042Z,5.28
2023-04-08T21:11:53.073Z,5.35
2023-04-08T21:15:05.087Z,5.35
2023-04-08T21:18:17.228Z,5.32
2023-04-08T21:21:29.471Z,5.25
2023-04-08T21:24:41.488Z,5.24
2023-04-08T21:27:53.580Z,5.28
2023-04-08T21:31:15.014Z,5.20
2023-04-08T21:34:27.563Z,5.19
2023-04-08T21:37:39.650Z,5.16
2023-04-08T21:40:51.773Z,5.14
2023-04-08T21:44:03.962Z,5.11
2023-04-08T21:47:16.073Z,5.14
2023-04-08T21:50:28.727Z,5.15
2023-04-08T21:53:40.865Z,5.10
2023-04-08T21:56:52.863Z,5.09
2023-04-08T22:00:06.933Z,5.06
2023-04-08T22:03:20.987Z,5.06
2023-04-08T22:06:33.112Z,5.01
2023-04-08T22:09:45.356Z,5.04
2023-04-08T22:12:57.469Z,5.06
2023-04-08T22:16:11.223Z,5.10
2023-04-08T22:19:23.238Z,5.10
2023-04-08T22:22:35.520Z,5.14
2023-04-08T22:25:47.728Z,5.13
2023-04-08T22:28:59.714Z,5.12
2023-04-08T22:32:12.435Z,5.11
2023-04-08T22:35:24.715Z,5.14
2023-04-08T22:38:36.938Z,5.12
2023-04-08T22:41:48.927Z,5.09
2023-04-08T22:45:01.236Z,5.05
2023-04-08T22:48:13.793Z,5.10
2023-04-08T22:51:25.753Z,5.15
2023-04-08T22:54:37.854Z,5.17
2023-04-08T22:57:49.947Z,5.17
2023-04-08T23:01:03.397Z,5.20
2023-04-08T23:04:15.586Z,5.21
2023-04-08T23:07:27.700Z,5.23
2023-04-08T23:10:39.792Z,5.24
2023-04-08T23:13:51.810Z,5.25
2023-04-08T23:17:05.092Z,5.18
2023-04-08T23:20:19.182Z,5.13
2023-04-08T23:23:32.139Z,5.02
2023-04-08T23:26:44.145Z,4.99
2023-04-08T23:29:56.164Z,5.04
2023-04-08T23:33:08.108Z,5.10
2023-04-08T23:36:20.423Z,5.10
2023-04-08T23:39:32.466Z,5.11
2023-04-08T23:42:44.535Z,5.10
2023-04-08T23:45:56.432Z,5.02
2023-04-08T23:49:08.393Z,4.88
2023-04-08T23:52:20.425Z,4.96
2023-04-08T23:55:32.709Z,4.89
2023-04-08T23:58:44.589Z,5.03
